Time;durP1;ratioP1;P1;durP2;ratioP2;P2;SDS_P1;SDS_P2;PMS_P1;PMS_P2;Temp;Humidity;BMP_temperature;BMP_pressure;BME280_temperature;BME280_humidity;BME280_pressure;Samples;Min_cycle;Max_cycle;Signal;HPM_P1;HPM_P2
2022/05/07 00:01:19;;;;;;;13.77;11.93;;;15.20;99.90;;;;;;5098728;28;20063;-62
2022/05/07 00:03:46;;;;;;;15.20;12.15;;;15.20;99.90;;;;;;5098745;28;20123;-62
2022/05/07 00:06:12;;;;;;;15.63;11.43;;;15.30;99.90;;;;;;5081072;28;20039;-62
2022/05/07 00:08:38;;;;;;;14.18;11.02;;;15.20;99.90;;;;;;5098717;28;20308;-62
2022/05/07 00:11:04;;;;;;;13.90;11.88;;;15.20;99.90;;;;;;5098575;28;20103;-62
2022/05/07 00:13:30;;;;;;;14.13;11.68;;;15.20;99.90;;;;;;5098616;28;20074;-61
2022/05/07 00:18:40;;;;;;;20.20;12.32;;;15.10;99.90;;;;;;5099124;28;20388;-62
2022/05/07 00:21:06;;;;;;;14.95;11.93;;;15.20;99.90;;;;;;5098383;28;20107;-62
2022/05/07 00:23:32;;;;;;;13.57;11.98;;;15.20;99.90;;;;;;5098393;28;20441;-62
2022/05/07 00:25:58;;;;;;;15.40;11.63;;;15.20;99.90;;;;;;5098258;28;20265;-62
2022/05/07 00:28:24;;;;;;;13.50;11.93;;;15.20;99.90;;;;;;5098106;28;20043;-62
2022/05/07 00:30:50;;;;;;;15.15;11.95;;;15.20;99.90;;;;;;5098072;28;20036;-63
2022/05/07 00:33:16;;;;;;;15.80;12.27;;;15.30;99.90;;;;;;5098131;28;20020;-62
2022/05/07 00:35:42;;;;;;;14.63;12.13;;;15.30;99.90;;;;;;5097263;28;20039;-62
2022/05/07 00:38:07;;;;;;;16.08;12.13;;;15.30;99.90;;;;;;5098631;28;20135;-63
2022/05/07 00:40:33;;;;;;;14.10;12.55;;;15.30;99.90;;;;;;5097377;28;20028;-63
2022/05/07 00:42:59;;;;;;;15.57;12.02;;;15.20;99.90;;;;;;5097985;28;20177;-62
2022/05/07 00:45:25;;;;;;;16.45;11.82;;;15.30;99.90;;;;;;5097728;28;20020;-63
2022/05/07 00:47:51;;;;;;;16.05;12.23;;;15.30;99.90;;;;;;5098038;28;20025;-63
2022/05/07 00:53:02;;;;;;;15.57;11.73;;;15.30;99.90;;;;;;5097758;28;20060;-63
2022/05/07 00:55:30;;;;;;;15.52;11.65;;;15.30;99.90;;;;;;5097790;28;20407;-63
2022/05/07 00:57:56;;;;;;;15.15;12.25;;;15.30;99.90;;;;;;5096969;28;20093;-63
2022/05/07 01:00:22;;;;;;;15.73;12.32;;;15.20;99.90;;;;;;5097609;28;20036;-63
2022/05/07 01:02:48;;;;;;;15.23;12.35;;;15.20;99.90;;;;;;5096893;28;20028;-63
2022/05/07 01:05:14;;;;;;;15.43;11.85;;;15.20;99.90;;;;;;5096824;28;20020;-62
2022/05/07 01:07:43;;;;;;;16.27;12.98;;;15.20;99.90;;;;;;5097809;28;20034;-63
2022/05/07 01:10:09;;;;;;;17.88;12.15;;;15.20;99.90;;;;;;5097034;28;20048;-63
2022/05/07 01:12:36;;;;;;;15.20;12.05;;;15.20;99.90;;;;;;5096670;28;20081;-64
2022/05/07 01:15:04;;;;;;;15.10;12.43;;;15.20;99.90;;;;;;5097488;28;20024;-63
2022/05/07 01:17:33;;;;;;;14.77;12.48;;;15.20;99.90;;;;;;5097698;28;20329;-63
2022/05/07 01:20:05;;;;;;;14.40;12.70;;;15.10;99.90;;;;;;5096478;28;20391;-62
2022/05/07 01:22:32;;;;;;;19.33;12.75;;;15.00;99.90;;;;;;5096508;28;20311;-63
2022/05/07 01:25:01;;;;;;;14.88;13.25;;;14.80;99.90;;;;;;5097186;28;20384;-63
2022/05/07 01:27:27;;;;;;;16.67;13.00;;;14.80;99.90;;;;;;5096861;28;20399;-62
2022/05/07 01:29:53;;;;;;;17.85;13.35;;;14.90;99.90;;;;;;5096455;28;20105;-63
2022/05/07 01:32:19;;;;;;;18.05;13.77;;;15.00;99.90;;;;;;5097922;28;20039;-63
2022/05/07 01:34:44;;;;;;;17.38;13.18;;;15.00;99.90;;;;;;5079725;28;20031;-63
2022/05/07 01:37:10;;;;;;;15.00;13.10;;;14.90;99.90;;;;;;5079457;28;20043;-65
2022/05/07 01:39:36;;;;;;;22.00;13.82;;;14.70;99.90;;;;;;5079562;28;20131;-63
2022/05/07 01:42:03;;;;;;;16.92;12.90;;;14.60;99.90;;;;;;5096249;28;20128;-62
2022/05/07 01:44:29;;;;;;;18.25;13.40;;;14.70;99.90;;;;;;5096245;28;20035;-63
2022/05/07 01:49:47;;;;;;;18.55;14.15;;;15.00;99.90;;;;;;5096166;28;20141;-63
2022/05/07 01:52:14;;;;;;;20.77;14.70;;;15.10;99.90;;;;;;5096242;28;20032;-62
2022/05/07 01:54:44;;;;;;;19.58;13.57;;;15.10;99.90;;;;;;5080116;28;20047;-63
2022/05/07 01:57:14;;;;;;;16.85;13.45;;;15.00;99.90;;;;;;5096377;28;20036;-63
2022/05/07 01:59:39;;;;;;;19.75;13.90;;;15.00;99.90;;;;;;5096207;28;20423;-63
2022/05/07 02:02:09;;;;;;;18.77;14.23;;;15.00;99.90;;;;;;5079824;28;20308;-63
2022/05/07 02:04:35;;;;;;;16.83;13.80;;;15.10;99.90;;;;;;5096880;28;20034;-63
2022/05/07 02:07:05;;;;;;;15.82;13.30;;;15.10;99.90;;;;;;5095970;28;20047;-63
2022/05/07 02:09:31;;;;;;;17.60;13.77;;;15.20;99.90;;;;;;5096060;28;20024;-63
2022/05/07 02:11:57;;;;;;;16.65;13.60;;;15.20;99.90;;;;;;5096814;28;20028;-63
2022/05/07 02:14:25;;;;;;;16.17;13.30;;;15.30;99.90;;;;;;5096020;28;20123;-63
2022/05/07 02:16:51;;;;;;;17.02;13.65;;;15.30;99.90;;;;;;5095898;28;20352;-63
2022/05/07 02:19:17;;;;;;;18.00;14.05;;;15.30;99.90;;;;;;5096794;28;20039;-63
2022/05/07 02:21:42;;;;;;;17.08;13.48;;;15.10;99.90;;;;;;5098239;28;20036;-63
2022/05/07 02:24:08;;;;;;;16.95;13.95;;;14.90;99.90;;;;;;5101304;28;20102;-63
2022/05/07 02:26:34;;;;;;;16.40;13.90;;;15.00;99.90;;;;;;5099938;28;20024;-63
2022/05/07 02:29:02;;;;;;;16.42;14.25;;;14.90;99.90;;;;;;5101059;28;20343;-63
2022/05/07 02:31:30;;;;;;;19.52;14.40;;;14.90;99.90;;;;;;5083214;28;20115;-63
2022/05/07 02:33:56;;;;;;;20.17;14.52;;;14.90;99.90;;;;;;5100516;28;20032;-63
2022/05/07 02:36:25;;;;;;;16.80;14.32;;;14.90;99.90;;;;;;5100089;28;20295;-63
2022/05/07 02:38:51;;;;;;;15.95;14.27;;;14.90;99.90;;;;;;5101031;28;20300;-63
2022/05/07 02:44:04;;;;;;;17.15;14.20;;;14.80;99.90;;;;;;5099778;28;20024;-63
2022/05/07 02:46:30;;;;;;;16.98;14.30;;;14.80;99.90;;;;;;5099558;28;20078;-63
2022/05/07 02:48:56;;;;;;;17.80;13.80;;;14.80;99.90;;;;;;5100495;28;20442;-63
2022/05/07 02:51:22;;;;;;;18.10;13.15;;;14.90;99.90;;;;;;5100549;28;20029;-62
2022/05/07 02:53:48;;;;;;;15.07;10.95;;;15.00;99.90;;;;;;5082480;28;20028;-63
2022/05/07 02:56:14;;;;;;;16.50;10.60;;;15.10;99.90;;;;;;5100379;28;20351;-63
2022/05/07 02:58:40;;;;;;;15.93;10.07;;;14.80;99.90;;;;;;5099350;28;20043;-63
2022/05/07 03:01:09;;;;;;;14.65;9.95;;;14.80;99.90;;;;;;5099121;28;20036;-63
2022/05/07 03:03:35;;;;;;;13.18;9.80;;;14.80;99.90;;;;;;5099339;28;20273;-63
2022/05/07 03:06:05;;;;;;;14.57;10.13;;;14.80;99.90;;;;;;5082878;28;20119;-63
2022/05/07 03:08:34;;;;;;;11.80;9.65;;;14.80;99.90;;;;;;5099075;28;20027;-63
2022/05/07 03:11:00;;;;;;;13.02;8.55;;;14.80;99.90;;;;;;5098997;28;20046;-63
2022/05/07 03:13:26;;;;;;;11.15;8.65;;;14.80;99.90;;;;;;5099098;28;20304;-62
2022/05/07 03:15:52;;;;;;;12.52;8.77;;;14.80;99.90;;;;;;5082084;28;20039;-62
2022/05/07 03:18:18;;;;;;;16.38;9.13;;;14.90;99.90;;;;;;5098963;28;20078;-60
2022/05/07 03:20:44;;;;;;;12.45;8.13;;;14.90;99.90;;;;;;5098760;28;20384;-62
2022/05/07 03:23:16;;;;;;;14.20;8.10;;;14.90;99.90;;;;;;5098730;28;20033;-63
2022/05/07 03:25:45;;;;;;;12.43;8.70;;;14.90;99.90;;;;;;5098789;28;20152;-64
2022/05/07 03:28:11;;;;;;;9.85;8.05;;;14.80;99.90;;;;;;5099568;28;20047;-63
2022/05/07 03:30:41;;;;;;;13.70;8.82;;;14.70;99.90;;;;;;5098604;28;20044;-62
2022/05/07 03:33:08;;;;;;;12.90;8.40;;;14.70;99.90;;;;;;5098346;28;20108;-62
2022/05/07 03:35:37;;;;;;;13.57;8.18;;;14.60;99.90;;;;;;5098549;28;20039;-61
2022/05/07 03:38:04;;;;;;;12.05;8.80;;;14.60;99.90;;;;;;5098960;28;20301;-63
2022/05/07 03:40:36;;;;;;;14.80;9.73;;;14.40;99.90;;;;;;5082538;28;20281;-61
2022/05/07 03:43:06;;;;;;;11.60;8.25;;;14.40;99.90;;;;;;5098567;28;20274;-61
2022/05/07 03:45:32;;;;;;;13.75;8.95;;;14.30;99.90;;;;;;5098018;28;20040;-62
2022/05/07 03:47:59;;;;;;;12.35;8.90;;;14.40;99.90;;;;;;5098351;28;20020;-62
2022/05/07 03:50:28;;;;;;;15.48;9.77;;;14.30;99.90;;;;;;5098831;28;20056;-62
2022/05/07 03:55:41;;;;;;;15.07;9.90;;;14.10;99.90;;;;;;5098158;28;20047;-63
2022/05/07 03:58:15;;;;;;;12.82;9.57;;;14.00;99.90;;;;;;5098148;28;20470;-61
2022/05/07 04:00:42;;;;;;;15.55;9.68;;;14.00;99.90;;;;;;5098090;28;20058;-62
2022/05/07 04:03:10;;;;;;;15.43;9.23;;;14.00;99.90;;;;;;5098047;28;20059;-63
2022/05/07 04:05:46;;;;;;;15.40;9.02;;;14.10;99.90;;;;;;5082489;28;20024;-62
2022/05/07 04:08:17;;;;;;;13.00;9.45;;;14.00;99.90;;;;;;5081982;28;20115;-63
2022/05/07 04:10:44;;;;;;;12.77;9.38;;;14.00;99.90;;;;;;5097801;28;20071;-63
2022/05/07 04:13:16;;;;;;;16.60;9.57;;;14.00;99.90;;;;;;5097967;28;20387;-63
2022/05/07 04:15:43;;;;;;;13.98;9.77;;;14.00;99.90;;;;;;5097916;28;20124;-64
2022/05/07 04:18:10;;;;;;;15.98;10.20;;;14.10;99.90;;;;;;5097693;28;20031;-61
2022/05/07 04:20:39;;;;;;;18.80;10.50;;;14.10;99.90;;;;;;5097965;28;20407;-62
2022/05/07 04:23:09;;;;;;;15.05;10.40;;;14.00;99.90;;;;;;5097642;28;20047;-63
2022/05/07 04:25:35;;;;;;;14.85;10.07;;;14.00;99.90;;;;;;5098282;28;20067;-63
2022/05/07 04:28:01;;;;;;;17.52;10.57;;;14.00;99.90;;;;;;5098247;28;20060;-63
2022/05/07 04:30:27;;;;;;;18.05;10.77;;;14.10;99.90;;;;;;5097426;28;20039;-63
2022/05/07 04:32:53;;;;;;;19.45;11.13;;;14.10;99.90;;;;;;5097464;28;20063;-63
2022/05/07 04:35:20;;;;;;;15.00;10.25;;;14.10;99.90;;;;;;5097568;28;20036;-63
2022/05/07 04:37:46;;;;;;;15.65;10.77;;;14.00;99.90;;;;;;5097341;28;20028;-63
2022/05/07 04:40:13;;;;;;;16.45;11.27;;;14.00;99.90;;;;;;5080612;28;20047;-63
2022/05/07 04:42:41;;;;;;;16.75;10.93;;;14.00;99.90;;;;;;5097287;28;20051;-62
2022/05/07 04:45:08;;;;;;;15.45;10.45;;;13.90;99.90;;;;;;5096446;28;20311;-62
2022/05/07 04:47:43;;;;;;;16.13;10.95;;;13.90;99.90;;;;;;5097275;28;20039;-62
2022/05/07 04:50:21;;;;;;;16.05;10.27;;;13.70;99.90;;;;;;5097004;28;20185;-63
2022/05/07 04:52:51;;;;;;;14.52;9.90;;;13.80;99.90;;;;;;5080888;28;20020;-63
2022/05/07 04:55:17;;;;;;;14.88;9.73;;;13.70;99.90;;;;;;5097111;28;20039;-64
2022/05/07 04:57:52;;;;;;;18.73;10.75;;;13.90;99.90;;;;;;5097057;28;20392;-63
2022/05/07 05:00:22;;;;;;;17.27;11.25;;;14.00;99.90;;;;;;5096855;28;20403;-64
2022/05/07 05:02:58;;;;;;;14.77;10.90;;;13.90;99.90;;;;;;5097018;28;20047;-64
2022/05/07 05:05:25;;;;;;;15.68;10.60;;;14.00;99.90;;;;;;5097902;28;20031;-64
2022/05/07 05:07:58;;;;;;;17.88;10.90;;;13.90;99.90;;;;;;5081053;28;20418;-65
2022/05/07 05:10:26;;;;;;;21.75;11.20;;;13.90;99.90;;;;;;5096763;28;20072;-64
2022/05/07 05:12:53;;;;;;;15.50;10.15;;;13.90;99.90;;;;;;5096765;28;20383;-64
2022/05/07 05:15:20;;;;;;;18.75;10.98;;;13.80;99.90;;;;;;5096305;28;20047;-64
2022/05/07 05:18:04;;;;;;;17.40;11.02;;;13.70;99.90;;;;;;5096695;28;20024;-63
2022/05/07 05:20:36;;;;;;;15.35;11.07;;;13.80;99.90;;;;;;5097322;28;20150;-64
2022/05/07 05:23:19;;;;;;;19.55;12.00;;;13.90;99.90;;;;;;5096609;28;20020;-65
2022/05/07 05:25:46;;;;;;;17.45;11.30;;;14.10;99.90;;;;;;5096524;28;20032;-64
2022/05/07 05:28:26;;;;;;;18.95;11.27;;;14.10;99.90;;;;;;5096615;28;20115;-64
2022/05/07 05:30:58;;;;;;;19.42;11.52;;;14.20;99.90;;;;;;5096420;28;20050;-64
2022/05/07 05:33:26;;;;;;;17.00;10.93;;;14.20;99.90;;;;;;5097113;28;20028;-63
2022/05/07 05:36:07;;;;;;;22.58;10.90;;;14.10;99.90;;;;;;5096434;28;20032;-63
2022/05/07 05:38:36;;;;;;;17.30;10.80;;;14.20;99.90;;;;;;5080161;28;20035;-64
2022/05/07 05:41:02;;;;;;;16.95;10.55;;;14.30;99.90;;;;;;5096256;28;20143;-64
2022/05/07 05:43:29;;;;;;;14.93;9.50;;;14.40;99.90;;;;;;5096489;28;20024;-64
2022/05/07 05:45:55;;;;;;;17.05;10.35;;;14.50;99.90;;;;;;5097094;28;20039;-63
2022/05/07 05:48:21;;;;;;;19.48;12.52;;;14.60;99.90;;;;;;5096159;28;20299;-64
2022/05/07 05:50:46;;;;;;;25.40;13.98;;;14.70;99.90;;;;;;5079526;28;20040;-63
2022/05/07 05:53:15;;;;;;;21.52;14.23;;;14.80;99.90;;;;;;5079828;28;20043;-63
2022/05/07 05:55:46;;;;;;;22.55;14.18;;;14.80;99.90;;;;;;5098749;28;20047;-64
2022/05/07 05:58:13;;;;;;;23.75;14.13;;;14.90;99.90;;;;;;5100426;28;20077;-63
2022/05/07 06:00:40;;;;;;;22.40;13.68;;;14.90;99.90;;;;;;5101353;28;20051;-63
2022/05/07 06:03:09;;;;;;;25.25;14.43;;;14.80;99.90;;;;;;5100366;28;20040;-63
2022/05/07 06:05:36;;;;;;;24.17;14.43;;;14.60;99.90;;;;;;5100702;28;20036;-63
2022/05/07 06:08:02;;;;;;;23.15;14.38;;;14.60;99.90;;;;;;5083266;28;20085;-64
2022/05/07 06:10:34;;;;;;;24.38;14.68;;;14.60;99.90;;;;;;5100223;28;20472;-64
2022/05/07 06:13:00;;;;;;;21.45;13.70;;;14.60;99.90;;;;;;5101023;28;20354;-64
2022/05/07 06:15:26;;;;;;;25.30;14.93;;;14.40;99.90;;;;;;5083634;28;20229;-65
2022/05/07 06:17:52;;;;;;;22.05;14.25;;;14.40;99.90;;;;;;5100065;28;20043;-65
2022/05/07 06:20:20;;;;;;;24.42;14.27;;;14.40;99.90;;;;;;5100296;28;20115;-63
2022/05/07 06:22:58;;;;;;;22.65;14.65;;;14.40;99.90;;;;;;5099918;28;20400;-65
2022/05/07 06:28:15;;;;;;;21.08;13.00;;;14.80;99.90;;;;;;5100175;28;20039;-64
2022/05/07 06:30:42;;;;;;;24.58;14.73;;;15.00;99.90;;;;;;5099881;28;20115;-63
2022/05/07 06:33:11;;;;;;;23.20;13.85;;;15.30;99.90;;;;;;5099947;28;20273;-64
2022/05/07 06:35:44;;;;;;;21.65;14.57;;;15.60;99.90;;;;;;5099771;28;20422;-64
2022/05/07 06:38:16;;;;;;;24.07;13.73;;;15.80;99.90;;;;;;5099838;28;20081;-63
2022/05/07 06:40:49;;;;;;;24.25;15.05;;;16.00;99.90;;;;;;5099764;28;20028;-63
2022/05/07 06:43:18;;;;;;;26.23;14.93;;;16.20;99.90;;;;;;5100543;28;20363;-62
2022/05/07 06:45:55;;;;;;;26.13;14.60;;;16.50;99.90;;;;;;5099481;28;20419;-63
2022/05/07 06:48:21;;;;;;;24.17;14.55;;;16.60;99.90;;;;;;5099194;28;20128;-65
2022/05/07 06:50:53;;;;;;;26.73;15.68;;;16.30;99.90;;;;;;5099484;28;20043;-64
2022/05/07 06:53:22;;;;;;;25.60;14.57;;;16.30;99.90;;;;;;5099386;28;20114;-65
2022/05/07 06:56:01;;;;;;;30.00;16.10;;;16.20;99.90;;;;;;5100071;28;20094;-65
2022/05/07 06:58:33;;;;;;;24.65;14.70;;;16.20;99.90;;;;;;5099945;28;20052;-65
2022/05/07 07:01:01;;;;;;;24.65;15.30;;;16.10;99.90;;;;;;5100372;28;20039;-63
2022/05/07 07:03:27;;;;;;;26.17;15.20;;;16.00;99.90;;;;;;5100001;28;20040;-64
2022/05/07 07:05:56;;;;;;;24.80;15.25;;;16.00;99.90;;;;;;5099819;28;20032;-64
2022/05/07 07:08:22;;;;;;;23.88;14.40;;;16.00;99.90;;;;;;5099175;28;20443;-64
2022/05/07 07:10:48;;;;;;;27.17;15.82;;;16.00;99.90;;;;;;5099197;28;20036;-63
2022/05/07 07:13:16;;;;;;;27.40;15.52;;;16.00;99.90;;;;;;5099866;28;20345;-63
2022/05/07 07:15:42;;;;;;;26.90;16.13;;;16.10;99.90;;;;;;5099685;28;20032;-63
2022/05/07 07:18:12;;;;;;;24.77;15.13;;;16.10;99.90;;;;;;5099610;28;20038;-64
2022/05/07 07:20:39;;;;;;;22.63;14.98;;;16.10;99.90;;;;;;5099674;28;20032;-66
2022/05/07 07:23:06;;;;;;;26.42;15.80;;;15.50;99.90;;;;;;5099475;28;20035;-65
2022/05/07 07:25:32;;;;;;;21.48;14.07;;;15.20;99.90;;;;;;5099519;28;20028;-65
2022/05/07 07:27:58;;;;;;;28.42;16.25;;;15.40;99.90;;;;;;5099583;28;20097;-65
2022/05/07 07:30:24;;;;;;;26.85;15.73;;;15.70;99.90;;;;;;5100033;28;20040;-65
2022/05/07 07:32:50;;;;;;;29.20;16.55;;;15.70;99.90;;;;;;5098576;28;20376;-64
2022/05/07 07:35:16;;;;;;;23.42;15.65;;;15.70;99.90;;;;;;5099704;28;20026;-64
2022/05/07 07:37:45;;;;;;;28.17;15.18;;;15.80;99.90;;;;;;5098760;28;20032;-64
2022/05/07 07:40:13;;;;;;;26.42;15.80;;;16.00;99.90;;;;;;5098356;28;20071;-65
2022/05/07 07:42:42;;;;;;;26.95;16.08;;;16.00;99.90;;;;;;5099207;28;20040;-64
2022/05/07 07:48:03;;;;;;;26.42;15.48;;;16.30;99.90;;;;;;5099076;28;20040;-64
2022/05/07 07:50:34;;;;;;;28.25;15.45;;;16.30;99.90;;;;;;5098726;28;20098;-63
2022/05/07 07:53:10;;;;;;;22.63;14.60;;;16.40;99.90;;;;;;5099235;28;20029;-64
2022/05/07 07:55:37;;;;;;;25.27;15.10;;;16.60;99.90;;;;;;5098943;28;20118;-64
2022/05/07 07:58:05;;;;;;;23.20;14.75;;;16.50;99.90;;;;;;5099046;28;20334;-64
2022/05/07 08:00:31;;;;;;;26.02;14.90;;;16.70;99.90;;;;;;5098712;28;20280;-64
2022/05/07 08:02:59;;;;;;;27.88;15.43;;;17.00;99.90;;;;;;5098768;28;20123;-64
2022/05/07 08:05:27;;;;;;;26.30;15.13;;;17.10;99.90;;;;;;5098646;28;20053;-64
2022/05/07 08:13:24;;;;;;;22.20;14.43;;;18.10;99.90;;;;;;5098775;28;20064;-64
2022/05/07 08:15:50;;;;;;;22.75;14.30;;;18.10;99.90;;;;;;5098557;28;20067;-63
2022/05/07 08:18:16;;;;;;;19.35;13.68;;;18.60;99.90;;;;;;5098503;28;20119;-64
2022/05/07 08:20:43;;;;;;;23.42;14.85;;;18.70;99.90;;;;;;5098263;28;20054;-63
2022/05/07 08:23:10;;;;;;;23.48;13.93;;;18.70;99.90;;;;;;5098509;28;20024;-65
2022/05/07 08:25:37;;;;;;;21.50;14.77;;;18.40;99.90;;;;;;5097831;28;20031;-64
2022/05/07 08:28:04;;;;;;;20.73;14.20;;;18.40;99.90;;;;;;5098512;28;20296;-65
2022/05/07 08:30:30;;;;;;;19.05;13.02;;;19.10;99.90;;;;;;5098251;28;20024;-64
2022/05/07 08:32:57;;;;;;;23.55;14.88;;;19.50;99.90;;;;;;5080501;28;20043;-64
2022/05/07 08:35:23;;;;;;;23.20;14.65;;;20.00;99.90;;;;;;5098170;28;20047;-65
2022/05/07 08:37:50;;;;;;;22.08;14.27;;;19.40;99.90;;;;;;5098149;28;20085;-65
2022/05/07 08:40:18;;;;;;;21.45;14.20;;;18.90;99.90;;;;;;5098209;28;20378;-64
2022/05/07 08:42:44;;;;;;;23.08;14.00;;;19.00;99.90;;;;;;5098062;28;20062;-64
2022/05/07 08:45:14;;;;;;;24.38;15.00;;;19.80;99.90;;;;;;5097943;28;20034;-64
2022/05/07 08:47:44;;;;;;;22.65;14.02;;;20.60;99.90;;;;;;5098186;28;20032;-64
2022/05/07 08:50:16;;;;;;;22.73;13.38;;;21.00;99.90;;;;;;5097759;28;20073;-64
2022/05/07 08:52:43;;;;;;;20.30;13.18;;;21.40;99.90;;;;;;5098051;28;20028;-64
2022/05/07 08:55:17;;;;;;;19.08;12.27;;;21.70;99.90;;;;;;5098038;28;20028;-65
2022/05/07 08:57:47;;;;;;;18.80;12.75;;;21.90;99.90;;;;;;5097870;28;20028;-64
2022/05/07 09:00:14;;;;;;;15.43;11.68;;;22.00;99.90;;;;;;5098183;28;20410;-63
2022/05/07 09:02:48;;;;;;;19.48;11.82;;;22.30;99.90;;;;;;5097937;28;20341;-64
2022/05/07 09:05:18;;;;;;;21.77;13.02;;;22.40;99.90;;;;;;5079991;28;20035;-65
2022/05/07 09:08:00;;;;;;;22.10;14.60;;;22.10;99.90;;;;;;5096859;28;20110;-65
2022/05/07 09:10:27;;;;;;;22.10;12.80;;;21.50;99.90;;;;;;5097680;28;20057;-66
2022/05/07 09:13:00;;;;;;;17.60;11.98;;;21.40;99.90;;;;;;5097520;28;20265;-64
2022/05/07 09:15:26;;;;;;;24.77;12.38;;;21.50;99.90;;;;;;5097832;28;20028;-62
2022/05/07 09:17:55;;;;;;;22.30;13.35;;;21.60;99.90;;;;;;5096740;28;20064;-63
2022/05/07 09:20:25;;;;;;;18.10;12.68;;;21.40;99.90;;;;;;5096652;28;20107;-61
2022/05/07 09:22:55;;;;;;;24.85;13.20;;;21.60;99.90;;;;;;5096626;28;20052;-63
2022/05/07 09:25:26;;;;;;;18.40;12.15;;;20.90;99.90;;;;;;5097328;28;20077;-68
2022/05/07 09:28:01;;;;;;;18.42;12.18;;;21.00;99.90;;;;;;5096197;28;20028;-69
2022/05/07 09:30:28;;;;;;;17.63;11.63;;;21.40;99.90;;;;;;5096715;28;20028;-68
2022/05/07 09:32:57;;;;;;;19.95;11.98;;;21.80;99.90;;;;;;5096518;28;20032;-69
2022/05/07 09:38:22;;;;;;;20.63;12.23;;;22.10;99.90;;;;;;5096734;28;20330;-68
2022/05/07 09:40:48;;;;;;;18.20;12.10;;;22.10;99.90;;;;;;5097124;28;20032;-70
2022/05/07 09:43:14;;;;;;;19.58;12.65;;;21.90;99.90;;;;;;5097088;28;20028;-70
2022/05/07 09:45:41;;;;;;;20.85;12.65;;;21.80;99.90;;;;;;5097079;28;20035;-70
2022/05/07 09:48:08;;;;;;;21.55;13.43;;;21.80;99.90;;;;;;5095589;28;20165;-69
2022/05/07 09:58:40;;;;;;;19.90;12.95;;;22.00;99.90;;;;;;5097262;28;20067;-68
2022/05/07 10:01:15;;;;;;;17.25;12.65;;;22.20;99.90;;;;;;5097236;28;20476;-68
2022/05/07 10:04:04;;;;;;;15.05;11.07;;;22.40;99.90;;;;;;5096101;28;20351;-69
2022/05/07 10:06:41;;;;;;;15.40;10.85;;;22.10;99.90;;;;;;5096936;28;20044;-70
2022/05/07 10:09:30;;;;;;;16.92;11.23;;;22.40;99.90;;;;;;5096817;28;20034;-71
2022/05/07 10:11:57;;;;;;;17.15;10.10;;;22.50;99.90;;;;;;5059300;28;20395;-68
2022/05/07 10:14:31;;;;;;;16.50;11.20;;;22.50;99.90;;;;;;5097277;28;20447;-67
2022/05/07 10:17:07;;;;;;;16.75;11.93;;;22.40;99.90;;;;;;5096044;28;20128;-69
2022/05/07 10:19:43;;;;;;;17.80;12.05;;;22.30;99.90;;;;;;5097396;28;20314;-69
2022/05/07 10:22:17;;;;;;;18.48;12.63;;;22.00;99.90;;;;;;5096909;28;20039;-70
2022/05/07 10:24:44;;;;;;;15.95;11.85;;;22.40;99.90;;;;;;5097971;28;20020;-71
2022/05/07 10:27:29;;;;;;;18.88;12.82;;;22.70;99.90;;;;;;5096703;28;20020;-69
2022/05/07 10:30:09;;;;;;;22.90;12.40;;;23.00;99.90;;;;;;5096005;28;20077;-70
2022/05/07 10:32:57;;;;;;;16.95;11.13;;;23.30;99.90;;;;;;5095882;28;20032;-68
2022/05/07 10:35:40;;;;;;;20.70;11.52;;;23.30;99.90;;;;;;5096611;28;20136;-73
2022/05/07 10:38:15;;;;;;;17.73;11.50;;;23.00;99.90;;;;;;5096969;28;20032;-71
2022/05/07 10:40:59;;;;;;;15.40;10.45;;;22.60;99.90;;;;;;5096552;28;20293;-70
2022/05/07 10:43:38;;;;;;;17.20;10.82;;;22.40;99.90;;;;;;5099400;28;20388;-69
2022/05/07 10:46:12;;;;;;;14.68;10.00;;;22.30;99.90;;;;;;5100916;28;20067;-69
2022/05/07 10:49:11;;;;;;;15.40;9.90;;;22.30;99.90;;;;;;5100214;28;20447;-66
2022/05/07 10:51:40;;;;;;;15.45;9.55;;;22.00;99.90;;;;;;5058278;28;20472;-70
2022/05/07 10:54:19;;;;;;;13.60;8.80;;;22.10;99.90;;;;;;5100807;28;20108;-72
2022/05/07 10:56:47;;;;;;;13.73;7.80;;;22.80;99.90;;;;;;5100396;28;20039;-68
2022/05/07 10:59:13;;;;;;;11.15;8.00;;;23.90;99.90;;;;;;5100856;28;20020;-70
2022/05/07 11:01:46;;;;;;;15.07;7.82;;;24.80;99.90;;;;;;5100396;28;20047;-69
2022/05/07 11:04:13;;;;;;;8.73;7.53;;;25.60;99.90;;;;;;5099635;28;20296;-70
2022/05/07 11:06:39;;;;;;;11.45;7.90;;;25.90;99.90;;;;;;5100217;28;20032;-70
2022/05/07 11:09:05;;;;;;;15.70;7.55;;;26.70;99.90;;;;;;5099699;28;20020;-71
2022/05/07 11:11:52;;;;;;;10.57;7.40;;;27.20;99.90;;;;;;5101195;28;20016;-71
2022/05/07 11:14:26;;;;;;;10.80;7.72;;;27.60;99.90;;;;;;5099644;28;20046;-69
2022/05/07 11:16:54;;;;;;;8.55;6.72;;;28.20;99.90;;;;;;5099855;28;20031;-67
2022/05/07 11:19:32;;;;;;;9.43;6.28;;;28.40;99.90;;;;;;5100000;28;20036;-73
2022/05/07 11:22:02;;;;;;;9.73;7.05;;;28.90;99.50;;;;;;5100312;28;20158;-70
2022/05/07 11:24:30;;;;;;;7.63;6.18;;;28.90;98.40;;;;;;5082039;28;20028;-69
2022/05/07 11:27:02;;;;;;;12.52;7.65;;;28.20;99.20;;;;;;5100475;28;20097;-72
2022/05/07 11:29:29;;;;;;;8.43;7.60;;;28.50;99.00;;;;;;5100018;28;20036;-67
2022/05/07 11:31:57;;;;;;;10.52;8.40;;;29.40;98.30;;;;;;5099100;28;20123;-70
2022/05/07 11:34:37;;;;;;;7.63;6.50;;;29.90;96.70;;;;;;5099870;28;20334;-71
2022/05/07 11:37:19;;;;;;;11.15;7.18;;;30.40;96.30;;;;;;5099853;28;20024;-68
2022/05/07 11:39:56;;;;;;;9.20;7.78;;;29.80;95.40;;;;;;5100009;28;20085;-67
2022/05/07 11:42:32;;;;;;;10.98;7.25;;;29.20;96.00;;;;;;5099121;28;20040;-67
2022/05/07 11:47:57;;;;;;;11.13;7.43;;;30.20;94.90;;;;;;5099175;28;20417;-67
2022/05/07 11:50:26;;;;;;;12.05;7.50;;;31.20;92.60;;;;;;5098244;28;20040;-68
2022/05/07 11:52:54;;;;;;;7.50;6.72;;;31.10;91.60;;;;;;5097935;28;20028;-67
2022/05/07 11:55:26;;;;;;;9.20;7.20;;;30.40;92.10;;;;;;5099353;28;20031;-67
2022/05/07 11:57:53;;;;;;;9.00;6.67;;;30.60;91.60;;;;;;5098905;28;20029;-67
2022/05/07 12:00:22;;;;;;;10.88;7.55;;;30.60;91.10;;;;;;5098815;28;20278;-67
2022/05/07 12:02:53;;;;;;;8.73;5.95;;;29.50;91.60;;;;;;5098709;28;20357;-67
2022/05/07 12:05:19;;;;;;;10.07;7.72;;;29.50;92.80;;;;;;5099307;28;20031;-65
2022/05/07 12:07:48;;;;;;;10.98;7.28;;;30.20;92.00;;;;;;5097961;28;20031;-67
2022/05/07 12:10:20;;;;;;;9.27;7.13;;;30.60;91.10;;;;;;5098731;28;20032;-66
2022/05/07 12:12:48;;;;;;;10.02;7.00;;;30.60;90.40;;;;;;5098718;28;20032;-67
2022/05/07 12:15:13;;;;;;;9.38;7.47;;;30.60;90.20;;;;;;5097942;28;20043;-68
2022/05/07 12:17:57;;;;;;;11.48;6.88;;;30.30;90.30;;;;;;5081061;28;20036;-67
2022/05/07 12:20:24;;;;;;;9.07;7.20;;;30.80;90.00;;;;;;5084138;28;20028;-66
2022/05/07 12:31:07;;;;;;;10.23;6.97;;;32.80;80.30;;;;;;5097725;28;20044;-71
2022/05/07 12:33:37;;;;;;;8.30;7.10;;;31.60;79.70;;;;;;5098923;28;20048;-70
2022/05/07 12:36:03;;;;;;;6.78;5.72;;;30.60;82.20;;;;;;5081679;28;20106;-67
2022/05/07 12:38:29;;;;;;;7.20;6.15;;;30.40;83.70;;;;;;5098103;28;20396;-66
2022/05/07 12:40:58;;;;;;;8.50;5.75;;;30.70;82.90;;;;;;5098520;28;20040;-65
2022/05/07 12:43:28;;;;;;;8.90;6.45;;;32.00;81.30;;;;;;5098052;28;20044;-67
2022/05/07 12:45:54;;;;;;;6.15;5.28;;;33.00;77.70;;;;;;5098003;28;20035;-65
2022/05/07 12:48:20;;;;;;;11.13;5.60;;;34.10;75.10;;;;;;5097724;28;20028;-67
2022/05/07 12:50:46;;;;;;;7.30;5.55;;;34.90;70.90;;;;;;5098251;28;20314;-66
2022/05/07 12:53:15;;;;;;;9.35;5.97;;;33.60;70.80;;;;;;5097906;28;20111;-67
2022/05/07 12:55:43;;;;;;;5.95;5.03;;;31.70;74.70;;;;;;5097875;28;20036;-65
2022/05/07 12:58:11;;;;;;;6.60;5.13;;;31.50;74.90;;;;;;5097022;28;20035;-66
2022/05/07 13:00:40;;;;;;;5.55;4.53;;;32.20;74.40;;;;;;5097768;28;20127;-64
2022/05/07 13:03:07;;;;;;;6.22;5.63;;;33.20;73.50;;;;;;5096936;28;20036;-66
2022/05/07 13:05:34;;;;;;;6.30;4.70;;;34.10;71.00;;;;;;5097340;28;20447;-67
2022/05/07 13:08:03;;;;;;;6.60;4.35;;;34.90;68.10;;;;;;5097768;28;20039;-65
2022/05/07 13:10:33;;;;;;;6.53;4.80;;;35.50;66.20;;;;;;5097608;28;20039;-65
2022/05/07 13:12:59;;;;;;;6.13;4.82;;;35.00;63.10;;;;;;5096972;28;20024;-65
2022/05/07 13:15:28;;;;;;;5.75;4.43;;;35.40;64.10;;;;;;5097673;28;20031;-65
2022/05/07 13:17:58;;;;;;;6.30;4.97;;;35.70;62.90;;;;;;5097394;28;20312;-65
2022/05/07 13:20:28;;;;;;;6.30;4.80;;;35.30;61.60;;;;;;5097449;28;20403;-65
2022/05/07 13:22:55;;;;;;;5.25;4.30;;;33.80;63.30;;;;;;5097417;28;20043;-65
2022/05/07 13:25:23;;;;;;;6.07;4.68;;;31.80;64.60;;;;;;5097964;28;20024;-64
2022/05/07 13:27:50;;;;;;;6.13;4.72;;;30.40;69.80;;;;;;5097300;28;20027;-65